sensor_id;sensor_type;location;lat;lon;timestamp;pressure;altitude;pressure_sealevel;temperature;humidity
8637;BME280;4356;49.068;8.658;2023-02-02T00:00:09;100584.69;;;15.62;36.93
8637;BME280;4356;49.068;8.658;2023-02-02T00:02:35;100596.19;;;15.64;37.12
8637;BME280;4356;49.068;8.658;2023-02-02T00:05:01;100592.63;;;15.64;37.33
8637;BME280;4356;49.068;8.658;2023-02-02T00:07:26;100591.34;;;15.60;37.53
8637;BME280;4356;49.068;8.658;2023-02-02T00:09:52;100584.91;;;15.61;37.28
8637;BME280;4356;49.068;8.658;2023-02-02T00:12:18;100588.81;;;15.58;37.37
8637;BME280;4356;49.068;8.658;2023-02-02T00:17:12;100599.47;;;15.60;37.04
8637;BME280;4356;49.068;8.658;2023-02-02T00:19:37;100590.03;;;15.56;37.52
8637;BME280;4356;49.068;8.658;2023-02-02T00:22:03;100583.09;;;15.53;37.40
8637;BME280;4356;49.068;8.658;2023-02-02T00:24:28;100567.16;;;15.43;37.54
8637;BME280;4356;49.068;8.658;2023-02-02T00:26:58;100582.44;;;15.51;37.58
8637;BME280;4356;49.068;8.658;2023-02-02T00:29:30;100599.38;;;15.53;37.24
8637;BME280;4356;49.068;8.658;2023-02-02T00:31:56;100603.97;;;15.53;37.35
8637;BME280;4356;49.068;8.658;2023-02-02T00:34:25;100596.84;;;15.52;37.17
8637;BME280;4356;49.068;8.658;2023-02-02T00:39:22;100601.41;;;15.51;37.60
8637;BME280;4356;49.068;8.658;2023-02-02T00:41:52;100582.66;;;15.50;37.38
8637;BME280;4356;49.068;8.658;2023-02-02T00:44:17;100553.66;;;15.35;37.76
8637;BME280;4356;49.068;8.658;2023-02-02T00:47:02;100570.69;;;15.44;37.27
8637;BME280;4356;49.068;8.658;2023-02-02T00:49:28;100581.16;;;15.47;37.68
8637;BME280;4356;49.068;8.658;2023-02-02T00:51:54;100571.72;;;15.43;37.73
8637;BME280;4356;49.068;8.658;2023-02-02T00:54:19;100581.06;;;15.40;37.39
8637;BME280;4356;49.068;8.658;2023-02-02T00:56:46;100584.41;;;15.42;37.97
8637;BME280;4356;49.068;8.658;2023-02-02T00:59:11;100578.34;;;15.40;37.55
8637;BME280;4356;49.068;8.658;2023-02-02T01:14:45;100589.06;;;15.34;37.84
8637;BME280;4356;49.068;8.658;2023-02-02T01:17:11;100586.06;;;15.29;38.31
8637;BME280;4356;49.068;8.658;2023-02-02T01:19:36;100598.38;;;15.31;37.90
8637;BME280;4356;49.068;8.658;2023-02-02T01:22:02;100595.00;;;15.29;38.13
8637;BME280;4356;49.068;8.658;2023-02-02T01:24:28;100576.69;;;15.17;37.87
8637;BME280;4356;49.068;8.658;2023-02-02T01:26:53;100599.59;;;15.29;37.84
8637;BME280;4356;49.068;8.658;2023-02-02T01:29:19;100599.41;;;15.30;37.94
8637;BME280;4356;49.068;8.658;2023-02-02T01:31:44;100597.53;;;15.31;38.11
8637;BME280;4356;49.068;8.658;2023-02-02T01:34:10;100596.03;;;15.28;38.31
8637;BME280;4356;49.068;8.658;2023-02-02T01:36:36;100576.97;;;15.22;38.02
8637;BME280;4356;49.068;8.658;2023-02-02T01:39:01;100585.41;;;15.27;37.67
8637;BME280;4356;49.068;8.658;2023-02-02T01:41:27;100564.84;;;15.18;38.22
8637;BME280;4356;49.068;8.658;2023-02-02T01:43:59;100585.03;;;15.30;38.33
8637;BME280;4356;49.068;8.658;2023-02-02T01:46:31;100575.22;;;15.29;38.02
8637;BME280;4356;49.068;8.658;2023-02-02T01:49:15;100578.28;;;15.26;38.10
8637;BME280;4356;49.068;8.658;2023-02-02T01:51:56;100571.69;;;15.28;38.15
8637;BME280;4356;49.068;8.658;2023-02-02T01:54:33;100583.50;;;15.27;38.46
8637;BME280;4356;49.068;8.658;2023-02-02T01:57:10;100585.41;;;15.27;38.10
8637;BME280;4356;49.068;8.658;2023-02-02T01:59:37;100575.31;;;15.21;38.13
8637;BME280;4356;49.068;8.658;2023-02-02T02:02:04;100578.66;;;15.23;38.08
8637;BME280;4356;49.068;8.658;2023-02-02T02:04:31;100583.44;;;15.21;37.98
8637;BME280;4356;49.068;8.658;2023-02-02T02:06:58;100571.56;;;15.22;38.35
8637;BME280;4356;49.068;8.658;2023-02-02T02:09:25;100576.16;;;15.21;38.34
8637;BME280;4356;49.068;8.658;2023-02-02T02:11:52;100575.09;;;15.22;38.57
8637;BME280;4356;49.068;8.658;2023-02-02T02:14:18;100555.03;;;15.17;38.22
8637;BME280;4356;49.068;8.658;2023-02-02T02:20:02;100578.19;;;15.19;38.29
8637;BME280;4356;49.068;8.658;2023-02-02T02:31:55;100596.22;;;15.12;38.61
8637;BME280;4356;49.068;8.658;2023-02-02T02:34:31;100603.47;;;15.12;38.36
8637;BME280;4356;49.068;8.658;2023-02-02T02:37:26;100589.09;;;15.11;38.38
8637;BME280;4356;49.068;8.658;2023-02-02T02:42:29;100589.09;;;15.11;38.60
8637;BME280;4356;49.068;8.658;2023-02-02T02:45:00;100589.09;;;15.11;38.67
8637;BME280;4356;49.068;8.658;2023-02-02T02:47:29;100590.84;;;15.04;38.49
8637;BME280;4356;49.068;8.658;2023-02-02T02:49:55;100578.69;;;15.00;38.50
8637;BME280;4356;49.068;8.658;2023-02-02T02:52:21;100589.00;;;15.05;38.59
8637;BME280;4356;49.068;8.658;2023-02-02T02:54:49;100603.66;;;15.10;38.64
8637;BME280;4356;49.068;8.658;2023-02-02T03:00:02;100604.50;;;15.11;38.87
8637;BME280;4356;49.068;8.658;2023-02-02T03:05:52;100607.22;;;15.11;38.12
8637;BME280;4356;49.068;8.658;2023-02-02T03:08:29;100603.66;;;15.10;38.84
8637;BME280;4356;49.068;8.658;2023-02-02T03:10:57;100591.31;;;15.08;38.72
8637;BME280;4356;49.068;8.658;2023-02-02T03:13:25;100592.72;;;15.04;38.26
8637;BME280;4356;49.068;8.658;2023-02-02T03:15:51;100598.78;;;15.06;38.77
8637;BME280;4356;49.068;8.658;2023-02-02T03:18:19;100595.53;;;15.10;38.68
8637;BME280;4356;49.068;8.658;2023-02-02T03:20:46;100589.66;;;15.07;38.36
8637;BME280;4356;49.068;8.658;2023-02-02T03:23:12;100574.69;;;14.96;38.23
8637;BME280;4356;49.068;8.658;2023-02-02T03:25:38;100579.56;;;15.01;38.18
8637;BME280;4356;49.068;8.658;2023-02-02T03:28:04;100600.69;;;15.05;38.89
8637;BME280;4356;49.068;8.658;2023-02-02T03:30:31;100584.59;;;15.04;38.79
8637;BME280;4356;49.068;8.658;2023-02-02T03:32:57;100593.38;;;15.06;38.68
8637;BME280;4356;49.068;8.658;2023-02-02T03:35:23;100597.97;;;15.05;38.37
8637;BME280;4356;49.068;8.658;2023-02-02T03:37:50;100590.84;;;15.04;38.74
8637;BME280;4356;49.068;8.658;2023-02-02T03:40:16;100585.06;;;15.07;39.01
8637;BME280;4356;49.068;8.658;2023-02-02T03:42:42;100592.56;;;15.05;38.31
8637;BME280;4356;49.068;8.658;2023-02-02T03:45:08;100594.41;;;15.05;38.54
8637;BME280;4356;49.068;8.658;2023-02-02T03:47:33;100591.22;;;15.01;38.67
8637;BME280;4356;49.068;8.658;2023-02-02T03:49:59;100591.22;;;15.01;38.65
8637;BME280;4356;49.068;8.658;2023-02-02T03:52:25;100600.69;;;15.05;38.80
8637;BME280;4356;49.068;8.658;2023-02-02T03:54:51;100595.41;;;15.04;38.70
8637;BME280;4356;49.068;8.658;2023-02-02T03:57:17;100593.94;;;15.01;38.84
8637;BME280;4356;49.068;8.658;2023-02-02T03:59:42;100598.50;;;15.01;38.54
8637;BME280;4356;49.068;8.658;2023-02-02T04:02:08;100601.88;;;15.03;38.61
8637;BME280;4356;49.068;8.658;2023-02-02T04:04:34;100597.50;;;15.02;38.86
8637;BME280;4356;49.068;8.658;2023-02-02T04:06:59;100602.91;;;15.02;38.48
8637;BME280;4356;49.068;8.658;2023-02-02T04:09:26;100610.19;;;15.01;38.80
8637;BME280;4356;49.068;8.658;2023-02-02T04:11:52;100597.34;;;14.95;39.14
8637;BME280;4356;49.068;8.658;2023-02-02T04:14:17;100607.47;;;15.01;38.72
8637;BME280;4356;49.068;8.658;2023-02-02T04:16:43;100589.81;;;14.91;38.78
8637;BME280;4356;49.068;8.658;2023-02-02T04:19:08;100606.44;;;15.02;38.70
8637;BME280;4356;49.068;8.658;2023-02-02T04:21:34;100613.72;;;15.02;38.84
8637;BME280;4356;49.068;8.658;2023-02-02T04:24:00;100613.88;;;15.00;38.75
8637;BME280;4356;49.068;8.658;2023-02-02T04:26:26;100611.19;;;15.00;39.08
8637;BME280;4356;49.068;8.658;2023-02-02T04:28:52;100607.00;;;14.98;38.95
8637;BME280;4356;49.068;8.658;2023-02-02T04:31:18;100607.66;;;15.00;39.21
8637;BME280;4356;49.068;8.658;2023-02-02T04:33:44;100599.97;;;14.89;38.72
8637;BME280;4356;49.068;8.658;2023-02-02T04:36:09;100595.22;;;14.91;38.42
8637;BME280;4356;49.068;8.658;2023-02-02T04:38:35;100624.06;;;14.98;38.87
8637;BME280;4356;49.068;8.658;2023-02-02T04:41:10;100624.91;;;14.99;39.05
8637;BME280;4356;49.068;8.658;2023-02-02T04:43:38;100624.25;;;14.97;38.65
8637;BME280;4356;49.068;8.658;2023-02-02T04:46:05;100627.59;;;14.99;39.15
8637;BME280;4356;49.068;8.658;2023-02-02T04:48:31;100620.72;;;14.96;38.71
8637;BME280;4356;49.068;8.658;2023-02-02T04:51:07;100624.41;;;14.95;38.89
8637;BME280;4356;49.068;8.658;2023-02-02T04:53:33;100628.84;;;14.96;38.97
8637;BME280;4356;49.068;8.658;2023-02-02T04:56:04;100625.09;;;14.97;38.76
8637;BME280;4356;49.068;8.658;2023-02-02T04:58:31;100616.88;;;14.91;39.01
8637;BME280;4356;49.068;8.658;2023-02-02T05:00:56;100641.31;;;14.97;38.76
8637;BME280;4356;49.068;8.658;2023-02-02T05:03:22;100632.72;;;14.94;39.19
8637;BME280;4356;49.068;8.658;2023-02-02T05:05:47;100643.19;;;14.97;39.13
8637;BME280;4356;49.068;8.658;2023-02-02T05:08:13;100638.13;;;14.94;38.85
8637;BME280;4356;49.068;8.658;2023-02-02T05:10:39;100640.84;;;14.94;38.87
8637;BME280;4356;49.068;8.658;2023-02-02T05:13:06;100646.44;;;14.92;38.92
8637;BME280;4356;49.068;8.658;2023-02-02T05:15:32;100657.56;;;14.97;39.39
8637;BME280;4356;49.068;8.658;2023-02-02T05:17:58;100649.81;;;14.94;39.25
8637;BME280;4356;49.068;8.658;2023-02-02T05:20:23;100634.66;;;14.85;38.97
8637;BME280;4356;49.068;8.658;2023-02-02T05:22:49;100660.66;;;14.94;38.66
8637;BME280;4356;49.068;8.658;2023-02-02T05:25:15;100659.59;;;14.95;39.01
8637;BME280;4356;49.068;8.658;2023-02-02T05:27:45;100658.59;;;14.96;39.19
8637;BME280;4356;49.068;8.658;2023-02-02T05:30:12;100662.50;;;14.94;39.09
8637;BME280;4356;49.068;8.658;2023-02-02T05:32:38;100664.34;;;14.93;38.74
8637;BME280;4356;49.068;8.658;2023-02-02T05:35:04;100672.78;;;14.98;38.80
8637;BME280;4356;49.068;8.658;2023-02-02T05:37:29;100648.19;;;14.85;39.27
8637;BME280;4356;49.068;8.658;2023-02-02T05:39:55;100656.13;;;14.87;39.00
8637;BME280;4356;49.068;8.658;2023-02-02T05:42:20;100662.53;;;14.86;39.04
8637;BME280;4356;49.068;8.658;2023-02-02T05:44:46;100671.66;;;14.93;39.07
8637;BME280;4356;49.068;8.658;2023-02-02T05:47:12;100662.50;;;14.94;38.87
8637;BME280;4356;49.068;8.658;2023-02-02T05:49:37;100674.00;;;14.96;38.91
8637;BME280;4356;49.068;8.658;2023-02-02T05:52:03;100673.50;;;14.92;39.04
8637;BME280;4356;49.068;8.658;2023-02-02T05:54:29;100666.41;;;14.91;38.93
8637;BME280;4356;49.068;8.658;2023-02-02T05:56:55;100666.41;;;14.91;39.03
8637;BME280;4356;49.068;8.658;2023-02-02T05:59:21;100669.00;;;14.85;39.07
8637;BME280;4356;49.068;8.658;2023-02-02T06:01:48;100680.59;;;14.93;38.97
8637;BME280;4356;49.068;8.658;2023-02-02T06:04:14;100683.13;;;14.95;39.04
8637;BME280;4356;49.068;8.658;2023-02-02T06:06:40;100676.03;;;14.94;39.08
8637;BME280;4356;49.068;8.658;2023-02-02T06:09:06;100669.78;;;14.93;39.40
8637;BME280;4356;49.068;8.658;2023-02-02T06:11:33;100677.38;;;14.98;38.74
8637;BME280;4356;49.068;8.658;2023-02-02T06:13:59;100660.16;;;14.91;38.60
8637;BME280;4356;49.068;8.658;2023-02-02T06:16:24;100668.69;;;15.02;38.87
8637;BME280;4356;49.068;8.658;2023-02-02T06:18:50;100675.44;;;15.06;38.68
8637;BME280;4356;49.068;8.658;2023-02-02T06:21:16;100686.06;;;15.08;39.05
8637;BME280;4356;49.068;8.658;2023-02-02T06:23:44;100684.88;;;15.10;38.98
8637;BME280;4356;49.068;8.658;2023-02-02T06:26:13;100678.44;;;15.11;38.90
8637;BME280;4356;49.068;8.658;2023-02-02T06:28:46;100680.59;;;15.16;38.87
8637;BME280;4356;49.068;8.658;2023-02-02T06:31:16;100681.09;;;15.19;38.90
8637;BME280;4356;49.068;8.658;2023-02-02T06:33:46;100675.66;;;15.19;38.98
8637;BME280;4356;49.068;8.658;2023-02-02T06:36:11;100666.69;;;15.19;38.92
8637;BME280;4356;49.068;8.658;2023-02-02T06:38:37;100682.88;;;15.27;39.03
8637;BME280;4356;49.068;8.658;2023-02-02T06:41:03;100680.84;;;15.29;38.77
8637;BME280;4356;49.068;8.658;2023-02-02T06:43:29;100683.19;;;15.32;38.95
8637;BME280;4356;49.068;8.658;2023-02-02T06:45:58;100681.13;;;15.34;38.92
8637;BME280;4356;49.068;8.658;2023-02-02T06:48:25;100683.47;;;15.37;38.63
8637;BME280;4356;49.068;8.658;2023-02-02T06:50:51;100685.16;;;15.38;39.14
8637;BME280;4356;49.068;8.658;2023-02-02T06:53:18;100676.84;;;15.39;38.81
8637;BME280;4356;49.068;8.658;2023-02-02T06:55:57;100689.88;;;15.44;38.72
8637;BME280;4356;49.068;8.658;2023-02-02T06:58:23;100691.38;;;15.47;38.78
8637;BME280;4356;49.068;8.658;2023-02-02T07:00:49;100688.47;;;15.48;38.66
8637;BME280;4356;49.068;8.658;2023-02-02T07:03:15;100676.59;;;15.49;38.84
8637;BME280;4356;49.068;8.658;2023-02-02T07:05:41;100682.34;;;15.54;38.74
8637;BME280;4356;49.068;8.658;2023-02-02T07:08:06;100668.59;;;15.56;38.73
8637;BME280;4356;49.068;8.658;2023-02-02T07:10:32;100670.94;;;15.59;38.74
8637;BME280;4356;49.068;8.658;2023-02-02T07:12:58;100669.72;;;15.61;38.86
8637;BME280;4356;49.068;8.658;2023-02-02T07:15:23;100677.69;;;15.63;38.82
8637;BME280;4356;49.068;8.658;2023-02-02T07:17:49;100687.94;;;15.67;38.80
8637;BME280;4356;49.068;8.658;2023-02-02T07:20:15;100695.91;;;15.69;38.48
8637;BME280;4356;49.068;8.658;2023-02-02T07:22:42;100690.31;;;15.70;38.70
8637;BME280;4356;49.068;8.658;2023-02-02T07:25:09;100683.94;;;15.63;38.44
8637;BME280;4356;49.068;8.658;2023-02-02T07:27:34;100692.63;;;15.73;38.83
8637;BME280;4356;49.068;8.658;2023-02-02T07:30:00;100691.97;;;15.71;38.91
8637;BME280;4356;49.068;8.658;2023-02-02T07:32:26;100714.13;;;15.75;38.55
8637;BME280;4356;49.068;8.658;2023-02-02T07:34:52;100711.06;;;15.78;38.68
8637;BME280;4356;49.068;8.658;2023-02-02T07:37:18;100700.38;;;15.76;38.52
8637;BME280;4356;49.068;8.658;2023-02-02T07:39:43;100693.94;;;15.77;38.89
8637;BME280;4356;49.068;8.658;2023-02-02T07:42:10;100689.00;;;15.81;38.63
8637;BME280;4356;49.068;8.658;2023-02-02T07:44:36;100700.50;;;15.83;38.53
8637;BME280;4356;49.068;8.658;2023-02-02T07:47:02;100699.28;;;15.85;38.34
8637;BME280;4356;49.068;8.658;2023-02-02T07:49:28;100698.19;;;15.80;38.73
8637;BME280;4356;49.068;8.658;2023-02-02T07:51:54;100703.41;;;15.81;38.93
8637;BME280;4356;49.068;8.658;2023-02-02T07:54:19;100711.16;;;15.84;38.86
8637;BME280;4356;49.068;8.658;2023-02-02T07:56:45;100701.81;;;15.87;38.59
8637;BME280;4356;49.068;8.658;2023-02-02T07:59:11;100723.59;;;15.93;38.39
8637;BME280;4356;49.068;8.658;2023-02-02T08:01:37;100729.03;;;15.93;38.56
8637;BME280;4356;49.068;8.658;2023-02-02T08:04:02;100710.31;;;15.84;38.76
8637;BME280;4356;49.068;8.658;2023-02-02T08:06:33;100740.34;;;15.97;38.77
8637;BME280;4356;49.068;8.658;2023-02-02T08:09:01;100737.63;;;15.97;38.45
8637;BME280;4356;49.068;8.658;2023-02-02T08:11:27;100723.22;;;15.96;38.31
8637;BME280;4356;49.068;8.658;2023-02-02T08:13:55;100737.44;;;15.98;38.46
8637;BME280;4356;49.068;8.658;2023-02-02T08:16:22;100745.38;;;16.00;38.44
8637;BME280;4356;49.068;8.658;2023-02-02T08:18:48;100748.28;;;15.98;38.56
8637;BME280;4356;49.068;8.658;2023-02-02T08:21:14;100755.41;;;15.99;38.46
8637;BME280;4356;49.068;8.658;2023-02-02T08:23:41;100747.25;;;15.99;38.71
8637;BME280;4356;49.068;8.658;2023-02-02T08:26:10;100744.56;;;15.99;38.65
8637;BME280;4356;49.068;8.658;2023-02-02T08:28:37;100731.25;;;15.90;38.77
8637;BME280;4356;49.068;8.658;2023-02-02T08:31:09;100752.69;;;15.99;38.57
8637;BME280;4356;49.068;8.658;2023-02-02T08:33:36;100748.28;;;15.98;38.64
8637;BME280;4356;49.068;8.658;2023-02-02T08:36:03;100744.09;;;15.96;38.71
8637;BME280;4356;49.068;8.658;2023-02-02T08:38:29;100757.91;;;16.01;38.68
8637;BME280;4356;49.068;8.658;2023-02-02T08:40:55;100759.13;;;15.98;38.72
8637;BME280;4356;49.068;8.658;2023-02-02T08:43:28;100766.91;;;16.01;38.47
8637;BME280;4356;49.068;8.658;2023-02-02T08:45:53;100775.84;;;16.02;38.41
8637;BME280;4356;49.068;8.658;2023-02-02T08:48:19;100768.09;;;15.99;38.53
8637;BME280;4356;49.068;8.658;2023-02-02T08:50:51;100762.09;;;16.03;38.72
8637;BME280;4356;49.068;8.658;2023-02-02T08:53:17;100755.88;;;16.03;38.66
8637;BME280;4356;49.068;8.658;2023-02-02T08:55:43;100762.78;;;16.05;38.81
8637;BME280;4356;49.068;8.658;2023-02-02T08:58:08;100769.91;;;16.06;38.45
8637;BME280;4356;49.068;8.658;2023-02-02T09:00:34;100768.38;;;16.04;38.43
8637;BME280;4356;49.068;8.658;2023-02-02T09:03:00;100777.19;;;16.06;38.73
8637;BME280;4356;49.068;8.658;2023-02-02T09:05:25;100785.31;;;16.06;38.69
8637;BME280;4356;49.068;8.658;2023-02-02T09:07:51;100781.09;;;16.03;38.49
8637;BME280;4356;49.068;8.658;2023-02-02T09:10:17;100791.41;;;16.08;38.85
8637;BME280;4356;49.068;8.658;2023-02-02T09:12:42;100801.19;;;16.09;38.55
8637;BME280;4356;49.068;8.658;2023-02-02T09:15:08;100792.91;;;16.10;38.53
8637;BME280;4356;49.068;8.658;2023-02-02T09:17:34;100774.47;;;16.06;38.67
8637;BME280;4356;49.068;8.658;2023-02-02T09:19:59;100784.78;;;16.10;38.43
8637;BME280;4356;49.068;8.658;2023-02-02T09:22:25;100775.13;;;16.08;38.88
8637;BME280;4356;49.068;8.658;2023-02-02T09:24:51;100781.03;;;16.11;38.64
8637;BME280;4356;49.068;8.658;2023-02-02T09:27:16;100787.28;;;16.12;38.82
8637;BME280;4356;49.068;8.658;2023-02-02T09:29:42;100788.16;;;16.12;38.78
8637;BME280;4356;49.068;8.658;2023-02-02T09:32:08;100781.03;;;16.11;38.56
8637;BME280;4356;49.068;8.658;2023-02-02T09:34:33;100794.56;;;16.11;38.43
8637;BME280;4356;49.068;8.658;2023-02-02T09:36:59;100795.06;;;16.15;38.88
8637;BME280;4356;49.068;8.658;2023-02-02T09:39:25;100802.34;;;16.14;38.81
8637;BME280;4356;49.068;8.658;2023-02-02T09:44:43;100819.75;;;16.20;38.71
8637;BME280;4356;49.068;8.658;2023-02-02T09:50:21;100810.41;;;16.22;38.94
8637;BME280;4356;49.068;8.658;2023-02-02T09:52:59;100818.34;;;16.24;38.40
8637;BME280;4356;49.068;8.658;2023-02-02T09:58:44;100804.59;;;16.25;38.57
8637;BME280;4356;49.068;8.658;2023-02-02T10:01:25;100806.84;;;16.22;38.43
8637;BME280;4356;49.068;8.658;2023-02-02T10:04:16;100809.19;;;16.25;38.53
8637;BME280;4356;49.068;8.658;2023-02-02T10:06:51;100819.00;;;16.26;38.85
8637;BME280;4356;49.068;8.658;2023-02-02T10:12:16;100813.59;;;16.26;38.61
8637;BME280;4356;49.068;8.658;2023-02-02T10:20:07;100807.25;;;16.33;38.52
8637;BME280;4356;49.068;8.658;2023-02-02T10:22:40;100809.09;;;16.33;38.31
8637;BME280;4356;49.068;8.658;2023-02-02T10:25:11;100808.25;;;16.32;38.70
8637;BME280;4356;49.068;8.658;2023-02-02T10:27:39;100806.00;;;16.36;38.37
8637;BME280;4356;49.068;8.658;2023-02-02T10:30:15;100809.84;;;16.41;38.35
8637;BME280;4356;49.068;8.658;2023-02-02T10:32:47;100808.16;;;16.40;38.50
8637;BME280;4356;49.068;8.658;2023-02-02T10:44:01;100823.16;;;16.51;37.99
8637;BME280;4356;49.068;8.658;2023-02-02T10:46:37;100826.34;;;16.55;38.24
8637;BME280;4356;49.068;8.658;2023-02-02T10:51:53;100831.78;;;16.55;38.53
8637;BME280;4356;49.068;8.658;2023-02-02T10:57:15;100824.38;;;16.63;38.12
8637;BME280;4356;49.068;8.658;2023-02-02T10:59:54;100813.63;;;16.70;38.00
8637;BME280;4356;49.068;8.658;2023-02-02T11:02:21;100802.50;;;16.79;37.92
8637;BME280;4356;49.068;8.658;2023-02-02T11:04:47;100804.72;;;16.90;37.53
8637;BME280;4356;49.068;8.658;2023-02-02T11:07:31;100800.22;;;16.97;37.33
8637;BME280;4356;49.068;8.658;2023-02-02T11:09:56;100810.75;;;17.07;37.39
8637;BME280;4356;49.068;8.658;2023-02-02T11:12:34;100815.88;;;17.16;37.22
8637;BME280;4356;49.068;8.658;2023-02-02T11:15:04;100828.53;;;17.24;37.17
8637;BME280;4356;49.068;8.658;2023-02-02T11:17:31;100826.06;;;17.29;37.01
8637;BME280;4356;49.068;8.658;2023-02-02T11:19:57;100829.50;;;17.37;36.96
8637;BME280;4356;49.068;8.658;2023-02-02T11:22:35;100830.25;;;17.46;36.75
8637;BME280;4356;49.068;8.658;2023-02-02T11:25:06;100835.75;;;17.53;36.59
8637;BME280;4356;49.068;8.658;2023-02-02T11:27:40;100825.94;;;17.52;36.72
8637;BME280;4356;49.068;8.658;2023-02-02T11:30:34;100833.38;;;17.64;36.80
8637;BME280;4356;49.068;8.658;2023-02-02T11:35:57;100830.97;;;17.76;36.24
8637;BME280;4356;49.068;8.658;2023-02-02T11:38:23;100830.00;;;17.83;36.40
8637;BME280;4356;49.068;8.658;2023-02-02T11:40:55;100835.69;;;17.88;36.13
8637;BME280;4356;49.068;8.658;2023-02-02T11:43:32;100818.78;;;17.93;36.41
8637;BME280;4356;49.068;8.658;2023-02-02T11:46:04;100812.13;;;17.95;36.29
8637;BME280;4356;49.068;8.658;2023-02-02T11:48:37;100815.56;;;18.04;36.01
8637;BME280;4356;49.068;8.658;2023-02-02T11:51:05;100816.00;;;18.07;35.81
8637;BME280;4356;49.068;8.658;2023-02-02T11:53:41;100821.47;;;18.14;36.16
8637;BME280;4356;49.068;8.658;2023-02-02T11:56:20;100811.25;;;18.16;36.00
8637;BME280;4356;49.068;8.658;2023-02-02T11:58:50;100803.97;;;18.23;35.73
8637;BME280;4356;49.068;8.658;2023-02-02T12:01:25;100801.50;;;18.28;35.86
8637;BME280;4356;49.068;8.658;2023-02-02T12:03:55;100803.81;;;18.31;35.67
8637;BME280;4356;49.068;8.658;2023-02-02T12:08:59;100794.47;;;18.40;35.65
8637;BME280;4356;49.068;8.658;2023-02-02T12:11:44;100795.16;;;18.48;35.70
8637;BME280;4356;49.068;8.658;2023-02-02T12:36:10;100816.41;;;18.66;35.40
8637;BME280;4356;49.068;8.658;2023-02-02T12:39:05;100825.19;;;18.62;35.38
8637;BME280;4356;49.068;8.658;2023-02-02T12:50:36;100806.13;;;18.34;35.92
8637;BME280;4356;49.068;8.658;2023-02-02T13:01:59;100791.56;;;18.14;36.17
8637;BME280;4356;49.068;8.658;2023-02-02T13:07:30;100793.59;;;18.05;36.32
8637;BME280;4356;49.068;8.658;2023-02-02T13:10:17;100777.66;;;18.02;36.29
8637;BME280;4356;49.068;8.658;2023-02-02T13:12:55;100773.66;;;17.98;36.62
8637;BME280;4356;49.068;8.658;2023-02-02T13:15:26;100770.69;;;17.93;36.75
8637;BME280;4356;49.068;8.658;2023-02-02T13:17:56;100782.78;;;17.91;36.85
8637;BME280;4356;49.068;8.658;2023-02-02T13:20:45;100780.94;;;17.91;36.74
8637;BME280;4356;49.068;8.658;2023-02-02T13:23:23;100787.38;;;17.90;36.50
8637;BME280;4356;49.068;8.658;2023-02-02T13:25:53;100800.94;;;17.84;36.67
8637;BME280;4356;49.068;8.658;2023-02-02T13:28:53;100802.56;;;17.78;36.75
8637;BME280;4356;49.068;8.658;2023-02-02T13:31:37;100805.41;;;17.70;36.80
8637;BME280;4356;49.068;8.658;2023-02-02T13:34:19;100804.13;;;17.66;36.91
8637;BME280;4356;49.068;8.658;2023-02-02T13:36:50;100793.81;;;17.62;37.10
8637;BME280;4356;49.068;8.658;2023-02-02T13:39:28;100779.09;;;17.50;37.02
8637;BME280;4356;49.068;8.658;2023-02-02T13:41:55;100798.16;;;17.56;37.39
8637;BME280;4356;49.068;8.658;2023-02-02T13:44:30;100793.13;;;17.53;37.35
8637;BME280;4356;49.068;8.658;2023-02-02T13:47:11;100810.09;;;17.55;37.45
8637;BME280;4356;49.068;8.658;2023-02-02T13:49:49;100817.59;;;17.53;37.54
8637;BME280;4356;49.068;8.658;2023-02-02T14:00:55;100821.06;;;17.47;37.43
8637;BME280;4356;49.068;8.658;2023-02-02T14:03:42;100821.22;;;17.45;37.69
8637;BME280;4356;49.068;8.658;2023-02-02T14:06:15;100823.78;;;17.47;37.27
8637;BME280;4356;49.068;8.658;2023-02-02T14:08:51;100831.75;;;17.48;37.27
8637;BME280;4356;49.068;8.658;2023-02-02T14:14:17;100827.88;;;17.43;37.63
8637;BME280;4356;49.068;8.658;2023-02-02T14:16:57;100819.72;;;17.43;37.43
8637;BME280;4356;49.068;8.658;2023-02-02T14:27:01;100847.56;;;17.45;37.52
8637;BME280;4356;49.068;8.658;2023-02-02T14:34:38;100836.81;;;17.37;37.34
8637;BME280;4356;49.068;8.658;2023-02-02T14:45:39;100850.03;;;17.40;37.68
8637;BME280;4356;49.068;8.658;2023-02-02T14:50:40;100865.13;;;17.42;37.62
8637;BME280;4356;49.068;8.658;2023-02-02T14:53:18;100857.72;;;17.36;37.36
8637;BME280;4356;49.068;8.658;2023-02-02T14:56:06;100875.97;;;17.42;37.27
8637;BME280;4356;49.068;8.658;2023-02-02T15:06:35;100880.56;;;17.42;37.21
8637;BME280;4356;49.068;8.658;2023-02-02T15:15:25;100892.28;;;17.42;37.26
8637;BME280;4356;49.068;8.658;2023-02-02T15:18:03;100891.63;;;17.40;37.46
8637;BME280;4356;49.068;8.658;2023-02-02T15:20:35;100895.19;;;17.41;37.46
8637;BME280;4356;49.068;8.658;2023-02-02T15:25:44;100913.56;;;17.39;37.40
8637;BME280;4356;49.068;8.658;2023-02-02T15:31:15;100928.44;;;17.43;37.57
8637;BME280;4356;49.068;8.658;2023-02-02T15:33:59;100907.94;;;17.40;37.15
8637;BME280;4356;49.068;8.658;2023-02-02T15:36:37;100927.41;;;17.44;37.24
8637;BME280;4356;49.068;8.658;2023-02-02T15:39:10;100923.19;;;17.41;37.42
8637;BME280;4356;49.068;8.658;2023-02-02T15:41:44;100925.72;;;17.43;37.46
8637;BME280;4356;49.068;8.658;2023-02-02T15:44:26;100928.28;;;17.44;37.27
8637;BME280;4356;49.068;8.658;2023-02-02T15:46:54;100939.50;;;17.41;37.30
8637;BME280;4356;49.068;8.658;2023-02-02T15:49:27;100949.34;;;17.42;37.49
8637;BME280;4356;49.068;8.658;2023-02-02T15:51:58;100954.59;;;17.44;37.24
8637;BME280;4356;49.068;8.658;2023-02-02T15:54:26;100972.25;;;17.48;37.48
8637;BME280;4356;49.068;8.658;2023-02-02T15:56:53;100959.81;;;17.45;37.44
8637;BME280;4356;49.068;8.658;2023-02-02T15:59:37;100956.06;;;17.46;37.25
8637;BME280;4356;49.068;8.658;2023-02-02T16:02:21;100965.56;;;17.51;37.20
8637;BME280;4356;49.068;8.658;2023-02-02T16:04:47;100972.06;;;17.50;37.39
8637;BME280;4356;49.068;8.658;2023-02-02T16:07:16;100959.81;;;17.45;37.23
8637;BME280;4356;49.068;8.658;2023-02-02T16:09:43;100969.53;;;17.48;37.67
8637;BME280;4356;49.068;8.658;2023-02-02T16:12:20;100982.91;;;17.50;37.40
8637;BME280;4356;49.068;8.658;2023-02-02T16:14:51;100989.22;;;17.50;37.08